TFM - Tactical Decision Aid (Experimental) INFO Settings

ID: Runway Winds: CIG/VIS Threshold: METAR Board: Map:

kiad - Washington-Dulles Intl

Updated at: 0013 UTC 27 Apr 2015
Latest TAF at: 2331 UTC 26 Apr 2015

TAF Board

Time2352Z27/01Z27/02Z27/03Z27/04Z27/05Z27/06Z27/07Z27/08Z27/09Z27/10Z27/11Z27/12Z27/13Z
TypeOBSPRVLPRVLPRVLPRVLPRVLPRVLPRVLPRVLPRVLPRVLPRVLPRVLPRVL
VIS10>6>6>6>6>6>6>6>6>6>6>6>6>6
CIG----------------------------
CoverFEWSCTSCTSCTSCTSCTSCTSCTSCTSCTSCTSCTSCTSCT
FltCatVFRVFRVFRVFRVFRVFRVFRVFRVFRVFRVFRVFRVFRVFR
WX----------------------------
WDir10360360360360360360360360360360360320320
WSpd7666666666661010
WGst----------------------------
TAF
KIAD 262331Z 2700/2806 36006KT P6SM SCT060
  FM271200 32010KT P6SM SCT060
  FM271400 31012G22KT P6SM BKN060
  FM272300 31012KT P6SM BKN050


METAR
KIAD 262352Z 01007KT 10SM FEW080 15/M02 A2970 RMK AO2 SLP056 T01501022 10172 20150 53005
KIAD 262252Z 36007KT 10SM FEW080 16/M01 A2969 RMK AO2 SLP052 T01611011

TAF/METAR Board Legend

Potential Impact
  None Marginal Slight Moderate High
Visibility (sm) > ≤X≤ <
Ceiling (100 ft) > ≤X≤ <
Wind Speed (kt) <10 10≤X<20 20≤X<30 ≥30
Wind Gust (kt) <15 15≤X<25 25≤X<35 ≥35
Weather No Wx Reported VCTS -TS,-FZRA TS,FZRA +TS,+FZRA




Notice: Undefined index: kiad in /caws/site/new_awc/application/modules/trafficflowmgmt/controllers/TdaController.php on line 188

Notice: Undefined index: kiad in /caws/site/new_awc/application/modules/trafficflowmgmt/controllers/TdaController.php on line 189